Time;durP1;ratioP1;P1;durP2;ratioP2;P2;SDS_P1;SDS_P2;PMS_P1;PMS_P2;Temp;Humidity;BMP_temperature;BMP_pressure;BME280_temperature;BME280_humidity;BME280_pressure;Samples;Min_cycle;Max_cycle;Signal;HPM_P1;HPM_P2
2022/01/06 00:01:37;;;;;;;2.00;0.52;;;;;;;6.10;50.26;99125.94;4469426;32;34556;-85
2022/01/06 00:04:06;;;;;;;2.78;0.60;;;;;;;5.96;51.29;99116.87;4474644;32;33190;-85
2022/01/06 00:06:40;;;;;;;3.58;0.85;;;;;;;6.00;51.34;99124.56;4461447;32;32105;-86
2022/01/06 00:09:10;;;;;;;3.85;0.88;;;;;;;6.25;50.04;99119.28;4452025;32;35382;-86
2022/01/06 00:11:37;;;;;;;1.37;0.88;;;;;;;5.94;51.61;99118.72;4463228;32;33053;-85
2022/01/06 00:24:26;;;;;;;1.42;0.70;;;;;;;5.35;52.68;99115.44;4475581;32;33795;-85
2022/01/06 00:26:56;;;;;;;5.87;1.05;;;;;;;5.62;52.47;99108.41;4450181;32;33082;-84
2022/01/06 00:29:24;;;;;;;2.35;0.88;;;;;;;5.52;53.01;99111.41;4456019;32;33289;-84
2022/01/06 00:31:52;;;;;;;1.92;1.00;;;;;;;6.06;50.62;99115.63;4455933;32;32945;-86
2022/01/06 00:34:20;;;;;;;2.05;1.27;;;;;;;5.95;50.98;99110.78;4469855;32;32812;-86
2022/01/06 00:36:49;;;;;;;3.15;1.05;;;;;;;5.69;52.09;99108.19;4467829;32;33382;-86
2022/01/06 00:39:16;;;;;;;5.00;0.62;;;;;;;5.83;51.90;99096.31;4468582;32;33479;-86
2022/01/06 00:41:44;;;;;;;8.05;0.80;;;;;;;6.13;51.27;99088.31;4461348;32;33925;-86
2022/01/06 00:44:12;;;;;;;2.87;0.73;;;;;;;5.89;52.08;99088.25;4464806;32;33967;-85
2022/01/06 00:46:40;;;;;;;2.35;0.88;;;;;;;6.03;51.29;99082.53;4459749;32;33853;-84
2022/01/06 00:49:08;;;;;;;2.20;0.65;;;;;;;5.94;51.53;99071.53;4463458;32;34782;-85
2022/01/06 00:51:35;;;;;;;2.55;1.10;;;;;;;6.05;51.63;99058.88;4475191;32;33923;-85
2022/01/06 00:54:03;;;;;;;1.90;1.05;;;;;;;5.95;51.97;99062.75;4456197;32;32139;-85
2022/01/06 00:56:31;;;;;;;1.48;0.80;;;;;;;5.86;52.28;99048.19;4469399;32;32875;-86
2022/01/06 00:58:59;;;;;;;4.62;0.95;;;;;;;5.93;51.80;99040.97;4463004;32;32547;-86
2022/01/06 01:01:27;;;;;;;4.25;0.90;;;;;;;5.86;52.02;99049.06;4451127;32;32405;-86
2022/01/06 01:03:55;;;;;;;6.07;0.82;;;;;;;6.07;51.32;99049.19;4451276;32;33752;-86
2022/01/06 01:06:23;;;;;;;3.15;1.10;;;;;;;6.03;51.40;99039.72;4461130;32;32702;-86
2022/01/06 01:08:50;;;;;;;2.15;0.68;;;;;;;5.76;52.20;99031.97;4459899;32;33558;-86
2022/01/06 01:11:18;;;;;;;1.17;0.70;;;;;;;5.61;53.25;99037.75;4468841;32;32838;-86
2022/01/06 01:13:56;;;;;;;2.22;0.60;;;;;;;5.91;51.77;99041.03;4461691;32;32911;-84
2022/01/06 01:16:31;;;;;;;3.55;1.10;;;;;;;5.84;51.84;99040.41;4474070;32;33933;-85
2022/01/06 01:19:03;;;;;;;3.30;0.88;;;;;;;5.87;52.39;99049.91;4454140;32;33744;-85
2022/01/06 01:21:31;;;;;;;1.75;0.80;;;;;;;5.63;53.28;99060.34;4461451;32;33726;-85
2022/01/06 01:23:59;;;;;;;3.45;0.95;;;;;;;5.63;53.11;99067.34;4460862;32;34001;-85
2022/01/06 01:26:27;;;;;;;1.25;0.50;;;;;;;5.70;52.50;99058.38;4463837;32;34601;-85
2022/01/06 01:28:55;;;;;;;2.47;0.85;;;;;;;5.70;52.90;99066.25;4448955;32;34339;-84
2022/01/06 01:33:53;;;;;;;2.80;0.70;;;;;;;5.64;53.08;99087.37;4469160;31;34187;-86
2022/01/06 01:36:21;;;;;;;1.20;0.60;;;;;;;5.79;52.04;99088.59;4474042;32;35031;-85
2022/01/06 01:38:49;;;;;;;2.62;0.60;;;;;;;5.87;51.92;99089.19;4460951;32;33737;-85
2022/01/06 01:41:17;;;;;;;2.25;0.62;;;;;;;5.91;52.28;99093.44;4462176;32;33614;-85
2022/01/06 01:43:48;;;;;;;4.20;0.80;;;;;;;5.83;52.91;99091.06;4472943;31;34040;-86
2022/01/06 01:46:19;;;;;;;1.40;0.90;;;;;;;5.95;52.56;99073.25;4461943;32;33257;-85
2022/01/06 01:48:57;;;;;;;1.00;0.40;;;;;;;6.04;51.81;99065.06;4475479;32;32454;-85
2022/01/06 01:51:25;;;;;;;0.73;0.70;;;;;;;5.89;52.22;99069.91;4464323;32;32531;-85
2022/01/06 01:53:53;;;;;;;0.95;0.60;;;;;;;5.97;52.21;99061.78;4481702;32;33001;-85
2022/01/06 01:56:20;;;;;;;2.10;0.80;;;;;;;5.71;52.90;99059.25;4477154;32;33930;-86
2022/01/06 01:58:48;;;;;;;1.25;0.68;;;;;;;5.48;53.66;99060.91;4463672;32;33939;-85
2022/01/06 02:01:16;;;;;;;3.50;0.90;;;;;;;5.71;53.44;99065.31;4464498;32;33832;-85
2022/01/06 02:03:44;;;;;;;2.25;0.55;;;;;;;5.81;52.93;99071.09;4476145;32;33024;-84
2022/01/06 02:06:12;;;;;;;3.08;0.60;;;;;;;5.67;53.14;99062.87;4462568;32;33543;-85
2022/01/06 02:08:40;;;;;;;1.95;0.70;;;;;;;5.83;52.72;99070.09;4449555;32;33211;-85
2022/01/06 02:11:08;;;;;;;1.37;0.80;;;;;;;5.63;53.43;99076.06;4463289;32;30932;-87
2022/01/06 02:13:50;;;;;;;2.25;0.70;;;;;;;5.80;53.28;99091.19;4452312;32;33069;-88
2022/01/06 02:16:21;;;;;;;1.02;0.77;;;;;;;5.85;53.11;99094.50;4465484;32;34154;-87
2022/01/06 02:18:50;;;;;;;2.50;0.90;;;;;;;5.99;52.44;99095.81;4475057;32;34072;-87
2022/01/06 02:21:18;;;;;;;1.90;0.73;;;;;;;5.87;53.50;99092.66;4463059;32;33714;-85
2022/01/06 02:23:46;;;;;;;0.68;0.57;;;;;;;5.82;53.02;99091.12;4461412;32;32825;-85
2022/01/06 02:26:14;;;;;;;2.70;0.60;;;;;;;5.86;53.21;99087.50;4449429;32;33295;-84
2022/01/06 02:28:42;;;;;;;2.78;0.80;;;;;;;5.94;52.50;99079.41;4461629;32;33524;-85
2022/01/06 02:31:10;;;;;;;2.58;0.80;;;;;;;5.75;53.38;99056.44;4464387;32;32605;-85
2022/01/06 02:33:38;;;;;;;1.27;0.50;;;;;;;5.71;53.02;99044.38;4478491;32;33794;-87
2022/01/06 02:36:05;;;;;;;0.80;0.52;;;;;;;5.76;52.96;99039.81;4449787;32;32336;-87
2022/01/06 02:38:34;;;;;;;1.30;0.93;;;;;;;5.61;52.72;99037.75;4450465;32;33722;-87
2022/01/06 02:41:02;;;;;;;1.20;0.80;;;;;;;5.54;53.42;99041.47;4451522;32;33060;-87
2022/01/06 02:43:31;;;;;;;1.98;0.75;;;;;;;5.59;53.30;99039.56;4451765;32;32545;-87
2022/01/06 02:45:59;;;;;;;0.73;0.70;;;;;;;5.59;53.55;99047.41;4474657;32;33442;-87
2022/01/06 02:48:27;;;;;;;2.60;0.75;;;;;;;5.62;53.72;99034.22;4463469;32;33386;-85
2022/01/06 02:50:54;;;;;;;1.62;0.60;;;;;;;5.72;53.35;99045.22;4476688;32;32088;-85
2022/01/06 02:53:23;;;;;;;2.60;0.60;;;;;;;5.88;52.81;99069.94;4463259;32;34184;-86
2022/01/06 02:55:53;;;;;;;7.22;0.80;;;;;;;5.76;53.38;99084.34;4452452;32;33129;-86
2022/01/06 02:58:40;;;;;;;0.75;0.60;;;;;;;5.70;54.13;99100.28;4463300;32;33026;-86
2022/01/06 03:01:08;;;;;;;2.85;1.25;;;;;;;5.68;53.60;99103.84;4463104;32;33192;-87
2022/01/06 03:03:36;;;;;;;1.33;0.98;;;;;;;5.20;55.47;99110.69;4462048;32;33055;-87
2022/01/06 03:06:04;;;;;;;1.80;0.68;;;;;;;5.20;55.80;99125.56;4462367;32;33382;-87
2022/01/06 03:08:34;;;;;;;1.58;0.60;;;;;;;5.67;54.02;99126.59;4451385;32;34420;-86
2022/01/06 03:11:01;;;;;;;4.82;0.93;;;;;;;5.83;53.41;99130.38;4473291;32;34105;-85
2022/01/06 03:13:29;;;;;;;1.58;0.55;;;;;;;5.81;53.76;99124.34;4459917;32;33819;-85
2022/01/06 03:15:57;;;;;;;1.77;0.85;;;;;;;5.95;53.28;99123.87;4458201;32;33426;-85
2022/01/06 03:18:25;;;;;;;4.32;0.73;;;;;;;5.72;54.45;99132.50;4462559;32;34784;-85
2022/01/06 03:20:52;;;;;;;2.60;0.60;;;;;;;5.50;55.23;99135.00;4456851;32;32765;-85
2022/01/06 03:23:20;;;;;;;1.37;0.60;;;;;;;5.43;55.05;99132.66;4462560;32;31576;-85
2022/01/06 03:25:48;;;;;;;1.95;0.75;;;;;;;5.88;53.13;99131.06;4476162;32;33222;-85
2022/01/06 03:28:16;;;;;;;1.80;0.90;;;;;;;5.71;53.92;99128.19;4471111;32;34753;-85
2022/01/06 03:30:43;;;;;;;5.25;0.85;;;;;;;5.79;53.53;99126.16;4469601;32;34571;-85
2022/01/06 03:33:11;;;;;;;1.20;0.70;;;;;;;5.80;53.64;99133.13;4469699;32;31896;-85
2022/01/06 03:35:39;;;;;;;1.60;1.08;;;;;;;5.96;53.22;99122.97;4456670;32;33853;-85
2022/01/06 03:38:07;;;;;;;0.90;0.68;;;;;;;5.49;54.86;99133.28;4464375;32;33772;-85
2022/01/06 03:40:35;;;;;;;2.55;0.60;;;;;;;5.30;55.16;99127.81;4450928;32;33168;-85
2022/01/06 03:43:03;;;;;;;2.62;0.75;;;;;;;5.53;54.05;99134.91;4477868;32;32945;-85
2022/01/06 03:45:32;;;;;;;1.87;0.60;;;;;;;5.29;54.90;99135.72;4470158;32;32754;-85
2022/01/06 03:48:00;;;;;;;1.10;0.62;;;;;;;5.65;53.81;99133.66;4463217;32;33474;-85
2022/01/06 03:50:28;;;;;;;2.37;0.68;;;;;;;5.43;54.84;99145.75;4462446;32;33276;-85
2022/01/06 03:52:56;;;;;;;2.65;0.80;;;;;;;5.52;53.91;99142.81;4475681;32;33237;-85
2022/01/06 03:55:24;;;;;;;1.08;0.60;;;;;;;5.45;53.81;99146.53;4464540;32;33752;-85
2022/01/06 03:57:52;;;;;;;2.67;1.58;;;;;;;5.51;53.61;99160.31;4476605;32;33546;-85
2022/01/06 04:00:21;;;;;;;3.10;1.23;;;;;;;5.27;54.58;99164.59;4463684;32;33254;-85
2022/01/06 04:02:51;;;;;;;1.73;0.85;;;;;;;5.58;53.87;99153.94;4464077;32;34339;-84
2022/01/06 04:05:19;;;;;;;1.62;0.77;;;;;;;5.47;53.92;99150.84;4464231;32;32639;-84
2022/01/06 04:07:47;;;;;;;1.58;0.75;;;;;;;5.82;52.88;99140.91;4474011;32;33305;-85
2022/01/06 04:10:15;;;;;;;3.97;0.90;;;;;;;5.45;54.31;99146.53;4478007;32;33956;-85
2022/01/06 04:12:42;;;;;;;4.55;1.10;;;;;;;5.60;53.70;99149.53;4449120;32;31892;-86
2022/01/06 04:15:12;;;;;;;4.37;0.70;;;;;;;5.80;53.14;99153.22;4458136;32;33284;-86
2022/01/06 04:17:42;;;;;;;2.10;0.75;;;;;;;5.74;53.00;99149.03;4460999;32;35201;-86
2022/01/06 04:20:12;;;;;;;2.28;0.77;;;;;;;5.81;53.01;99152.31;4462257;32;32943;-86
2022/01/06 04:22:42;;;;;;;2.90;0.82;;;;;;;5.86;53.04;99153.00;4475105;32;31859;-87
2022/01/06 04:25:11;;;;;;;3.15;1.12;;;;;;;5.95;52.68;99152.72;4463316;32;33233;-86
2022/01/06 04:27:39;;;;;;;2.85;0.90;;;;;;;5.72;54.07;99150.84;4476224;32;33792;-86
2022/01/06 04:30:08;;;;;;;2.95;0.52;;;;;;;5.72;53.00;99152.63;4467790;32;34547;-86
2022/01/06 04:32:36;;;;;;;3.60;0.80;;;;;;;5.71;53.27;99159.62;4461394;32;35390;-87
2022/01/06 04:35:07;;;;;;;2.03;0.90;;;;;;;5.72;54.10;99166.56;4443621;32;32708;-87
2022/01/06 04:37:35;;;;;;;2.12;0.50;;;;;;;6.01;53.19;99169.97;4469505;32;34029;-86
2022/01/06 04:40:06;;;;;;;1.25;0.70;;;;;;;5.86;53.75;99161.72;4456678;32;33912;-87
2022/01/06 04:42:34;;;;;;;1.90;0.40;;;;;;;6.13;52.49;99172.19;4451734;32;32467;-87
2022/01/06 04:45:01;;;;;;;1.90;0.62;;;;;;;6.37;51.32;99183.53;4449772;32;32548;-88
2022/01/06 04:47:30;;;;;;;2.42;1.00;;;;;;;6.18;52.12;99185.13;4455159;32;34732;-88
2022/01/06 04:49:57;;;;;;;7.62;0.80;;;;;;;6.06;52.84;99187.25;4450040;32;33015;-87
2022/01/06 04:52:25;;;;;;;0.60;0.30;;;;;;;6.29;51.12;99199.53;4462402;32;33334;-87
2022/01/06 04:54:53;;;;;;;1.73;0.32;;;;;;;5.87;52.80;99207.94;4462122;32;33050;-87
2022/01/06 04:57:21;;;;;;;3.05;0.70;;;;;;;6.23;51.49;99210.25;4450017;32;32478;-87
2022/01/06 04:59:48;;;;;;;2.12;0.50;;;;;;;5.91;52.04;99200.84;4448683;32;31968;-87
2022/01/06 05:02:16;;;;;;;2.50;0.75;;;;;;;5.86;53.43;99221.97;4473934;32;33326;-87
2022/01/06 05:04:44;;;;;;;2.17;0.85;;;;;;;5.96;53.22;99222.53;4472958;32;33610;-86
2022/01/06 05:07:12;;;;;;;4.32;1.00;;;;;;;6.11;52.39;99221.16;4460883;32;34039;-87
2022/01/06 05:09:40;;;;;;;1.27;0.77;;;;;;;6.17;51.84;99226.19;4469759;31;33239;-86
2022/01/06 05:12:08;;;;;;;2.25;0.90;;;;;;;6.18;51.86;99238.41;4458446;32;32310;-87
2022/01/06 05:14:36;;;;;;;5.32;1.05;;;;;;;6.00;52.84;99233.78;4460006;32;33713;-86
2022/01/06 05:17:04;;;;;;;4.78;0.90;;;;;;;6.08;52.90;99239.63;4470704;32;33218;-86
2022/01/06 05:19:32;;;;;;;1.48;0.57;;;;;;;6.39;51.31;99242.88;4469138;32;33067;-86
2022/01/06 05:22:00;;;;;;;2.25;0.40;;;;;;;6.35;51.30;99238.63;4460034;32;32739;-86
2022/01/06 05:24:28;;;;;;;3.17;0.43;;;;;;;6.51;50.64;99244.22;4462474;32;32195;-86
2022/01/06 05:26:57;;;;;;;6.97;0.75;;;;;;;6.12;52.12;99249.06;4463028;32;33963;-85
2022/01/06 05:29:25;;;;;;;0.43;0.40;;;;;;;6.22;51.23;99250.50;4463775;32;33836;-85
2022/01/06 05:31:52;;;;;;;3.78;0.82;;;;;;;6.20;51.12;99244.44;4459935;32;32285;-85
2022/01/06 05:34:20;;;;;;;1.83;0.85;;;;;;;6.24;50.74;99242.56;4477450;32;33832;-86
2022/01/06 05:36:48;;;;;;;1.15;0.52;;;;;;;6.02;51.54;99243.28;4452918;32;33826;-86
2022/01/06 05:39:16;;;;;;;3.40;0.62;;;;;;;5.85;52.83;99249.09;4469777;32;34729;-86
2022/01/06 05:41:45;;;;;;;1.33;0.50;;;;;;;6.27;51.46;99252.97;4469001;32;34247;-86
2022/01/06 05:44:13;;;;;;;1.20;0.57;;;;;;;6.29;51.35;99254.59;4463863;32;32779;-85
2022/01/06 05:46:41;;;;;;;3.60;0.93;;;;;;;5.80;53.52;99253.63;4463851;32;33978;-84
2022/01/06 05:49:08;;;;;;;4.57;1.37;;;;;;;6.16;52.33;99255.94;4462393;32;33586;-84
2022/01/06 05:51:36;;;;;;;2.62;1.25;;;;;;;6.32;51.43;99248.41;4465777;32;32833;-84
2022/01/06 05:54:03;;;;;;;3.30;1.27;;;;;;;6.19;51.91;99260.22;4456207;32;33504;-85
2022/01/06 05:56:31;;;;;;;2.60;0.90;;;;;;;5.70;53.67;99262.69;4475694;32;33973;-87
2022/01/06 05:58:59;;;;;;;2.33;0.80;;;;;;;5.99;52.73;99253.91;4458663;32;32947;-86
2022/01/06 06:01:27;;;;;;;6.95;1.40;;;;;;;5.99;52.99;99250.44;4476001;32;33392;-86
2022/01/06 06:03:56;;;;;;;1.45;0.98;;;;;;;5.72;53.41;99258.25;4475082;32;32842;-86
2022/01/06 06:06:23;;;;;;;1.77;0.90;;;;;;;5.74;53.87;99266.91;4461608;32;33526;-86
2022/01/06 06:08:51;;;;;;;2.65;0.70;;;;;;;5.93;53.44;99263.72;4463052;32;33777;-87
2022/01/06 06:11:19;;;;;;;5.87;1.40;;;;;;;5.75;53.34;99258.16;4474273;32;33526;-87
2022/01/06 06:13:47;;;;;;;3.05;0.88;;;;;;;5.47;55.01;99266.03;4450907;32;32821;-87
2022/01/06 06:16:14;;;;;;;3.30;0.80;;;;;;;5.57;54.60;99271.84;4477039;32;34168;-87
2022/01/06 06:18:42;;;;;;;2.45;0.85;;;;;;;5.67;54.26;99257.53;4461177;32;34068;-87
2022/01/06 06:21:10;;;;;;;6.03;1.17;;;;;;;5.65;54.67;99267.22;4453195;32;31583;-86
2022/01/06 06:23:38;;;;;;;2.97;1.17;;;;;;;5.50;55.23;99265.94;4462664;32;32994;-87
2022/01/06 06:26:07;;;;;;;2.60;0.90;;;;;;;5.27;55.79;99269.28;4459897;32;34025;-87
2022/01/06 06:28:35;;;;;;;1.83;0.80;;;;;;;5.51;55.24;99266.81;4458556;32;34586;-87
2022/01/06 06:31:02;;;;;;;2.03;0.88;;;;;;;5.24;56.61;99269.37;4463597;32;33177;-86
2022/01/06 06:33:30;;;;;;;1.77;0.90;;;;;;;5.49;55.43;99285.16;4447629;32;33030;-86
2022/01/06 06:35:58;;;;;;;1.70;0.50;;;;;;;5.43;55.56;99285.37;4461505;32;34391;-86
2022/01/06 06:38:26;;;;;;;4.30;0.98;;;;;;;5.60;54.90;99285.72;4457899;32;32501;-87
2022/01/06 06:40:54;;;;;;;2.45;0.70;;;;;;;5.37;55.65;99302.13;4470136;32;32640;-86
2022/01/06 06:43:22;;;;;;;3.45;1.27;;;;;;;5.21;56.35;99305.25;4456717;32;32375;-86
2022/01/06 06:45:49;;;;;;;1.70;1.20;;;;;;;5.48;55.51;99308.78;4448795;32;33735;-87
2022/01/06 06:48:17;;;;;;;3.30;1.27;;;;;;;5.40;55.87;99309.00;4464927;32;32710;-86
2022/01/06 06:50:44;;;;;;;3.60;1.08;;;;;;;5.49;55.42;99311.34;4462663;32;33352;-86
2022/01/06 06:53:12;;;;;;;2.35;0.82;;;;;;;5.73;54.76;99309.72;4452764;32;34372;-87
2022/01/06 06:55:40;;;;;;;8.68;1.45;;;;;;;5.72;54.72;99318.50;4464161;32;34840;-87
2022/01/06 06:58:07;;;;;;;8.75;1.15;;;;;;;5.81;54.78;99322.59;4464529;32;33894;-87
2022/01/06 07:00:35;;;;;;;3.03;1.45;;;;;;;5.82;54.81;99327.78;4464409;32;33478;-86
2022/01/06 07:03:03;;;;;;;4.75;1.17;;;;;;;5.96;54.44;99329.13;4465145;32;34393;-87
2022/01/06 07:05:31;;;;;;;3.30;1.50;;;;;;;6.13;53.90;99340.78;4453254;32;33202;-87
2022/01/06 07:07:59;;;;;;;3.22;1.23;;;;;;;5.97;54.47;99343.94;4464584;32;34087;-86
2022/01/06 07:10:27;;;;;;;3.95;1.10;;;;;;;5.90;54.61;99346.75;4464029;32;33463;-87
2022/01/06 07:12:54;;;;;;;5.32;1.85;;;;;;;5.81;54.89;99354.88;4451961;32;32256;-87
2022/01/06 07:15:22;;;;;;;4.03;1.52;;;;;;;5.99;54.50;99344.78;4464602;32;33663;-86
2022/01/06 07:17:50;;;;;;;8.65;2.00;;;;;;;6.01;54.67;99350.81;4476394;32;33538;-87
2022/01/06 07:20:18;;;;;;;4.85;1.40;;;;;;;5.93;54.71;99360.66;4462383;32;33900;-86
2022/01/06 07:22:45;;;;;;;6.70;1.42;;;;;;;5.84;54.83;99360.03;4447716;32;32734;-86
2022/01/06 07:25:13;;;;;;;5.90;1.60;;;;;;;5.72;55.68;99368.28;4451845;32;34247;-87
2022/01/06 07:27:41;;;;;;;7.43;1.65;;;;;;;5.81;55.14;99373.22;4464519;32;32893;-87
2022/01/06 07:30:09;;;;;;;3.65;1.37;;;;;;;5.80;55.41;99381.13;4474496;32;33429;-86
2022/01/06 07:32:44;;;;;;;5.80;1.58;;;;;;;5.71;55.79;99377.03;4452645;32;32370;-87
2022/01/06 07:35:12;;;;;;;2.58;1.48;;;;;;;5.85;55.26;99387.94;4452178;32;34176;-86
2022/01/06 07:37:40;;;;;;;3.62;0.80;;;;;;;5.92;55.01;99382.53;4465608;32;34546;-87
2022/01/06 07:40:09;;;;;;;2.45;0.75;;;;;;;5.94;54.67;99386.84;4450485;32;32619;-86
2022/01/06 07:42:36;;;;;;;4.10;1.37;;;;;;;5.81;55.79;99380.22;4464486;32;33724;-87
2022/01/06 07:45:05;;;;;;;2.50;0.90;;;;;;;6.07;54.77;99389.91;4449982;32;33331;-86
2022/01/06 07:47:36;;;;;;;2.92;1.23;;;;;;;5.74;56.00;99403.12;4464170;32;33936;-86
2022/01/06 07:50:04;;;;;;;1.90;1.23;;;;;;;5.73;56.35;99405.78;4464825;32;33014;-87
2022/01/06 07:52:32;;;;;;;4.00;1.10;;;;;;;5.87;55.93;99412.31;4450987;32;32825;-86
2022/01/06 07:55:00;;;;;;;2.70;1.00;;;;;;;6.10;54.89;99413.41;4460904;32;33580;-86
2022/01/06 07:57:27;;;;;;;4.28;0.70;;;;;;;6.24;54.18;99416.44;4462794;32;34177;-87
2022/01/06 07:59:55;;;;;;;3.60;1.12;;;;;;;6.15;54.75;99422.00;4462383;32;31960;-87
2022/01/06 08:02:22;;;;;;;5.35;1.10;;;;;;;6.24;55.22;99426.94;4451274;32;32922;-87
2022/01/06 08:04:50;;;;;;;4.18;1.30;;;;;;;6.33;54.11;99431.88;4460719;32;32991;-87
2022/01/06 08:07:18;;;;;;;4.43;1.23;;;;;;;6.00;55.33;99427.72;4458210;32;33458;-87
2022/01/06 08:09:45;;;;;;;4.22;0.98;;;;;;;6.28;54.83;99431.19;4450290;32;33353;-86
2022/01/06 08:12:13;;;;;;;4.28;1.12;;;;;;;6.15;55.07;99440.34;4456566;32;34189;-87
2022/01/06 08:14:41;;;;;;;2.37;0.93;;;;;;;6.18;54.99;99435.00;4478132;32;34054;-87
2022/01/06 08:17:08;;;;;;;4.35;1.23;;;;;;;6.16;55.05;99439.44;4462690;32;32528;-87
2022/01/06 08:19:36;;;;;;;2.75;1.12;;;;;;;6.49;54.17;99447.13;4470664;32;33237;-87
2022/01/06 08:22:03;;;;;;;7.40;1.37;;;;;;;6.22;55.34;99444.50;4462972;32;34058;-87
2022/01/06 08:24:31;;;;;;;3.62;1.12;;;;;;;6.14;55.51;99442.09;4470730;32;33576;-86
2022/01/06 08:27:33;;;;;;;3.65;1.30;;;;;;;6.72;53.33;99444.59;4475008;32;34503;-87
2022/01/06 08:30:00;;;;;;;3.50;1.08;;;;;;;6.52;54.12;99452.28;4455630;32;32166;-86
2022/01/06 08:32:28;;;;;;;5.45;1.30;;;;;;;6.26;55.66;99456.56;4455747;32;195644;-87
2022/01/06 08:34:56;;;;;;;3.10;1.10;;;;;;;6.43;54.86;99465.69;4462410;32;33226;-86
2022/01/06 08:37:23;;;;;;;1.62;1.25;;;;;;;6.87;52.88;99474.72;4462513;32;33879;-86
2022/01/06 08:39:55;;;;;;;3.90;1.25;;;;;;;6.98;52.67;99482.22;4462950;32;32995;-87
2022/01/06 08:42:23;;;;;;;4.50;1.70;;;;;;;6.98;52.59;99490.97;4463614;32;33866;-86
2022/01/06 08:44:50;;;;;;;2.97;1.37;;;;;;;6.87;53.74;99488.69;4456475;32;34480;-86
2022/01/06 08:47:18;;;;;;;3.08;0.90;;;;;;;7.02;52.79;99497.81;4470455;32;34062;-86
2022/01/06 08:49:45;;;;;;;2.37;1.15;;;;;;;7.32;51.57;99497.69;4449027;32;31867;-86
2022/01/06 08:52:13;;;;;;;2.72;0.90;;;;;;;7.12;52.28;99496.59;4473399;31;33226;-87
2022/01/06 08:54:41;;;;;;;3.33;1.52;;;;;;;7.26;51.88;99493.47;4463192;32;34679;-87
2022/01/06 08:57:08;;;;;;;1.60;1.17;;;;;;;7.27;51.89;99503.09;4462446;32;33060;-87
2022/01/06 08:59:36;;;;;;;2.10;0.82;;;;;;;7.16;52.14;99502.59;4457484;32;32821;-87
2022/01/06 09:02:05;;;;;;;2.45;1.02;;;;;;;7.12;51.87;99498.34;4464024;32;33377;-87
2022/01/06 09:04:32;;;;;;;1.27;0.80;;;;;;;6.88;53.42;99500.94;4448527;32;32987;-87
2022/01/06 09:07:02;;;;;;;1.15;0.80;;;;;;;7.30;51.70;99495.09;4453085;32;33255;-87
2022/01/06 09:09:30;;;;;;;2.30;0.85;;;;;;;7.33;51.71;99504.63;4463688;32;33283;-87
2022/01/06 09:11:57;;;;;;;4.47;1.00;;;;;;;7.25;52.20;99498.78;4445484;32;32704;-87
2022/01/06 09:14:26;;;;;;;2.90;1.25;;;;;;;7.06;53.27;99503.81;4462218;32;34809;-87
2022/01/06 09:16:54;;;;;;;3.53;1.00;;;;;;;6.98;52.88;99504.09;4449176;32;32058;-87
2022/01/06 09:19:21;;;;;;;4.07;1.12;;;;;;;6.93;53.02;99506.00;4451723;32;32430;-87
2022/01/06 09:21:50;;;;;;;2.47;0.82;;;;;;;6.69;54.10;99510.28;4447057;32;33078;-87
2022/01/06 09:24:19;;;;;;;3.97;0.82;;;;;;;7.15;52.05;99508.75;4456267;32;34130;-87
2022/01/06 09:26:47;;;;;;;0.82;0.60;;;;;;;7.31;51.51;99498.56;4454287;32;34140;-87
2022/01/06 09:29:14;;;;;;;4.50;0.85;;;;;;;6.89;52.12;99509.66;4451985;32;32489;-87
2022/01/06 09:31:42;;;;;;;2.28;1.05;;;;;;;7.03;51.97;99511.81;4448685;32;33035;-86
2022/01/06 09:34:10;;;;;;;3.17;1.10;;;;;;;6.97;52.43;99507.59;4468341;32;33796;-86
2022/01/06 09:36:39;;;;;;;2.70;0.90;;;;;;;6.99;52.10;99512.81;4471034;32;34453;-86
2022/01/06 09:39:10;;;;;;;4.22;1.00;;;;;;;6.89;52.88;99520.16;4465430;32;33362;-86
2022/01/06 09:41:38;;;;;;;3.33;0.98;;;;;;;6.88;52.75;99519.28;4453770;32;33420;-90
2022/01/06 09:44:06;;;;;;;1.75;0.82;;;;;;;6.84;53.13;99522.06;4463898;32;33088;-90
2022/01/06 09:46:57;;;;;;;1.90;0.77;;;;;;;7.23;52.22;99526.88;4440512;32;33153;-90
2022/01/06 09:49:25;;;;;;;2.35;1.05;;;;;;;6.86;53.84;99531.59;4462549;32;32318;-90
2022/01/06 09:51:52;;;;;;;1.67;0.75;;;;;;;7.31;52.23;99524.81;4462775;32;33771;-90
2022/01/06 09:54:20;;;;;;;6.70;1.23;;;;;;;7.59;51.23;99522.09;4463171;32;32976;-86
2022/01/06 09:56:48;;;;;;;4.43;1.08;;;;;;;7.99;50.11;99525.91;4459778;32;34043;-85
2022/01/06 09:59:16;;;;;;;4.90;1.52;;;;;;;8.19;49.63;99521.59;4461325;32;32127;-86
2022/01/06 10:01:44;;;;;;;2.10;0.73;;;;;;;7.53;51.58;99524.94;4474014;31;33285;-86
2022/01/06 10:04:30;;;;;;;1.27;0.73;;;;;;;8.01;49.92;99519.66;4457717;32;34023;-85
2022/01/06 10:06:59;;;;;;;7.28;1.33;;;;;;;7.82;50.83;99537.03;4461489;32;32906;-86
2022/01/06 10:09:28;;;;;;;5.10;0.90;;;;;;;7.34;52.42;99533.47;4448621;32;33704;-86
2022/01/06 10:11:57;;;;;;;2.17;1.12;;;;;;;7.75;50.83;99532.94;4472939;32;33559;-86
2022/01/06 10:14:37;;;;;;;5.35;0.90;;;;;;;7.96;50.84;99540.84;4459960;32;33385;-86
2022/01/06 10:17:06;;;;;;;1.50;0.70;;;;;;;7.83;50.03;99547.50;4464918;32;33601;-88
2022/01/06 10:19:35;;;;;;;5.25;1.20;;;;;;;7.91;50.22;99550.69;4460660;32;32881;-88
2022/01/06 10:22:11;;;;;;;4.18;0.85;;;;;;;8.04;50.59;99540.59;4464046;32;32776;-88
2022/01/06 10:24:40;;;;;;;0.30;0.30;;;;;;;8.26;49.91;99538.00;4474094;32;33631;-88
2022/01/06 10:27:09;;;;;;;4.65;1.08;;;;;;;8.08;48.75;99543.97;4452094;32;33099;-88
2022/01/06 10:29:43;;;;;;;5.28;0.80;;;;;;;7.56;50.82;99546.72;4463390;32;32022;-88
2022/01/06 10:32:14;;;;;;;4.12;0.80;;;;;;;7.70;50.98;99551.50;4461351;32;32385;-88
2022/01/06 10:34:45;;;;;;;5.45;0.93;;;;;;;8.13;49.28;99544.66;4463922;32;34188;-88
2022/01/06 10:37:30;;;;;;;4.20;1.37;;;;;;;8.34;48.90;99543.81;4461597;32;32307;-88
2022/01/06 10:40:19;;;;;;;3.37;0.77;;;;;;;8.01;49.41;99552.97;4474933;32;33187;-88
2022/01/06 10:42:49;;;;;;;1.45;0.73;;;;;;;8.04;49.92;99550.25;4474524;32;32999;-88
2022/01/06 10:45:24;;;;;;;1.62;0.80;;;;;;;8.34;50.07;99559.59;4461399;32;32870;-88
2022/01/06 10:47:54;;;;;;;5.20;0.77;;;;;;;8.09;50.01;99567.56;4463596;32;34760;-88
2022/01/06 10:50:23;;;;;;;1.92;0.90;;;;;;;8.33;49.49;99557.88;4476566;31;33427;-88
2022/01/06 10:52:52;;;;;;;0.95;0.60;;;;;;;8.83;48.45;99570.88;4462533;32;33177;-88
2022/01/06 10:55:36;;;;;;;2.33;0.80;;;;;;;8.54;49.18;99560.63;4460140;32;33019;-87
2022/01/06 10:58:07;;;;;;;4.10;1.15;;;;;;;8.52;48.60;99567.75;4448684;32;33343;-87
2022/01/06 11:00:43;;;;;;;3.58;1.15;;;;;;;8.51;48.20;99568.66;4478445;32;31348;-88
2022/01/06 11:03:16;;;;;;;2.75;1.10;;;;;;;8.40;48.64;99567.31;4473512;32;33118;-87
2022/01/06 11:05:52;;;;;;;1.15;0.65;;;;;;;8.21;49.47;99574.13;4451501;32;35738;-88
2022/01/06 11:08:23;;;;;;;2.08;1.00;;;;;;;8.41;48.97;99563.75;4450301;32;33956;-88
2022/01/06 11:11:14;;;;;;;1.42;0.82;;;;;;;8.29;49.00;99564.19;4449459;32;33663;-88
2022/01/06 11:13:45;;;;;;;3.37;1.17;;;;;;;8.29;49.22;99572.06;4474640;32;33102;-88
2022/01/06 11:16:18;;;;;;;4.45;1.33;;;;;;;8.20;49.84;99577.69;4462190;32;34792;-88
2022/01/06 11:18:54;;;;;;;2.60;1.05;;;;;;;8.24;49.87;99595.06;4475454;32;33599;-88
2022/01/06 11:21:39;;;;;;;2.80;1.02;;;;;;;8.27;49.93;99586.22;4461021;32;31281;-88
2022/01/06 11:24:16;;;;;;;1.40;0.98;;;;;;;8.00;51.74;99596.81;4476156;32;34493;-88
2022/01/06 11:27:01;;;;;;;5.82;1.02;;;;;;;7.87;51.18;99596.41;4464096;32;33446;-88
2022/01/06 11:29:34;;;;;;;2.15;0.82;;;;;;;8.15;50.03;99590.16;4463007;32;32656;-88
2022/01/06 11:32:18;;;;;;;3.80;1.33;;;;;;;8.33;49.16;99589.47;4461186;32;33622;-88
2022/01/06 11:34:46;;;;;;;;;;;;;;;7.95;51.02;99589.09;4475331;32;32346;-88
2022/01/06 11:37:16;;;;;;;4.82;1.12;;;;;;;7.98;50.77;99595.19;4472104;32;34631;-87
2022/01/06 11:39:44;;;;;;;1.95;0.98;;;;;;;8.01;50.90;99582.75;4461122;32;34439;-88
2022/01/06 11:42:20;;;;;;;2.80;0.98;;;;;;;7.95;51.86;99599.63;4472396;32;33284;-88
2022/01/06 11:44:53;;;;;;;2.20;1.05;;;;;;;7.59;52.61;99590.41;4473780;32;32752;-88
2022/01/06 11:47:37;;;;;;;2.70;0.68;;;;;;;7.75;51.34;99588.97;4472396;32;33601;-88
2022/01/06 11:50:10;;;;;;;1.77;0.68;;;;;;;7.77;51.47;99595.00;4466181;32;31828;-88
2022/01/06 11:52:55;;;;;;;6.50;0.80;;;;;;;8.14;50.22;99593.69;4473619;31;32682;-88
2022/01/06 11:55:28;;;;;;;2.80;1.00;;;;;;;8.12;49.99;99596.37;4468395;32;32641;-88
2022/01/06 11:58:17;;;;;;;3.45;1.02;;;;;;;8.09;49.31;99593.00;4474997;32;34607;-88
2022/01/06 12:01:05;;;;;;;2.00;0.82;;;;;;;8.10;49.08;99599.97;4451695;32;32246;-88
2022/01/06 12:03:42;;;;;;;4.12;1.02;;;;;;;8.05;49.71;99586.12;4467873;32;32564;-88
2022/01/06 12:06:26;;;;;;;2.95;1.00;;;;;;;8.17;49.50;99601.47;4474750;32;34630;-88